Time;durP1;ratioP1;P1;durP2;ratioP2;P2;SDS_P1;SDS_P2;PMS_P1;PMS_P2;Temp;Humidity;BMP_temperature;BMP_pressure;BME280_temperature;BME280_humidity;BME280_pressure;Samples;Min_cycle;Max_cycle;Signal;HPM_P1;HPM_P2
2022/08/29 00:01:23;;;;;;;48.33;19.37;;;;;;;;;;6215265;28;20049;-55
2022/08/29 00:04:24;;;;;;;44.80;19.03;;;;;;;;;;6229735;28;20042;-56
2022/08/29 00:07:24;;;;;;;42.40;19.03;;;;;;;;;;6222360;28;20034;-59
2022/08/29 00:10:26;;;;;;;43.00;19.20;;;;;;;;;;6217012;28;20097;-59
2022/08/29 00:13:27;;;;;;;43.97;19.50;;;;;;;;;;6216076;28;20046;-59
2022/08/29 00:16:27;;;;;;;47.87;19.87;;;;;;;;;;6231766;28;20107;-59
2022/08/29 00:19:28;;;;;;;41.63;18.67;;;;;;;;;;6241504;28;20048;-57
2022/08/29 00:22:29;;;;;;;47.93;19.60;;;;;;;;;;6243661;28;20045;-59
2022/08/29 00:25:30;;;;;;;44.23;20.07;;;;;;;;;;6224802;28;20131;-57
2022/08/29 00:28:30;;;;;;;49.70;20.50;;;;;;;;;;6225410;28;20072;-57
2022/08/29 00:31:31;;;;;;;42.37;19.90;;;;;;;;;;6222684;28;20049;-59
2022/08/29 00:34:31;;;;;;;43.13;19.63;;;;;;;;;;6225575;28;20042;-59
2022/08/29 00:37:32;;;;;;;45.50;19.83;;;;;;;;;;6226371;28;20135;-58
2022/08/29 00:40:40;;;;;;;48.53;21.60;;;;;;;;;;6225790;28;20037;-55
2022/08/29 00:43:40;;;;;;;49.78;20.90;;;;;;;;;;6225657;28;20046;-56
2022/08/29 00:46:41;;;;;;;46.93;21.13;;;;;;;;;;6225676;28;20409;-59
2022/08/29 00:49:47;;;;;;;45.23;20.13;;;;;;;;;;6230635;28;20046;-59
2022/08/29 00:52:48;;;;;;;48.85;21.55;;;;;;;;;;6224468;28;20073;-58
2022/08/29 00:55:48;;;;;;;47.33;20.77;;;;;;;;;;6222485;28;20042;-58
2022/08/29 00:58:57;;;;;;;47.67;21.40;;;;;;;;;;6223938;28;20131;-57
2022/08/29 01:01:58;;;;;;;51.92;20.73;;;;;;;;;;6223698;28;20065;-57
2022/08/29 01:04:59;;;;;;;45.43;22.00;;;;;;;;;;6225955;28;20140;-58
2022/08/29 01:07:59;;;;;;;42.83;21.10;;;;;;;;;;6225562;28;20046;-58
2022/08/29 01:14:22;;;;;;;44.15;21.63;;;;;;;;;;6224722;28;20038;-57
2022/08/29 01:17:32;;;;;;;44.58;21.35;;;;;;;;;;6224619;28;20462;-58
2022/08/29 01:20:39;;;;;;;53.10;21.10;;;;;;;;;;6222468;28;20501;-58
2022/08/29 01:23:45;;;;;;;47.42;20.83;;;;;;;;;;6223700;28;20181;-58
2022/08/29 01:26:46;;;;;;;38.20;18.98;;;;;;;;;;6224969;28;20062;-58
2022/08/29 01:29:48;;;;;;;47.53;22.40;;;;;;;;;;6223203;28;20081;-57
2022/08/29 01:32:48;;;;;;;43.72;20.70;;;;;;;;;;6222701;28;20689;-59
2022/08/29 01:35:49;;;;;;;43.77;20.07;;;;;;;;;;6221664;28;20116;-58
2022/08/29 01:38:50;;;;;;;39.23;20.03;;;;;;;;;;6222152;28;20041;-59
2022/08/29 01:41:51;;;;;;;42.77;20.23;;;;;;;;;;6221114;28;20068;-53
2022/08/29 01:44:54;;;;;;;38.85;18.92;;;;;;;;;;6222409;28;20049;-57
2022/08/29 01:47:55;;;;;;;37.80;19.48;;;;;;;;;;6224670;28;20046;-58
2022/08/29 01:50:56;;;;;;;44.80;20.90;;;;;;;;;;6223921;28;20053;-58
2022/08/29 01:53:56;;;;;;;46.47;19.57;;;;;;;;;;6222896;28;20042;-53
2022/08/29 01:56:57;;;;;;;41.13;20.13;;;;;;;;;;6223402;28;20061;-58
2022/08/29 01:59:58;;;;;;;42.47;20.03;;;;;;;;;;6222496;28;20051;-56
2022/08/29 02:03:02;;;;;;;39.07;19.83;;;;;;;;;;6221845;28;20037;-58
2022/08/29 02:06:03;;;;;;;37.70;19.20;;;;;;;;;;6222337;28;20136;-58
2022/08/29 02:09:04;;;;;;;42.83;19.77;;;;;;;;;;6222821;28;20481;-58
2022/08/29 02:12:05;;;;;;;39.83;19.13;;;;;;;;;;6222596;28;20048;-58
2022/08/29 02:15:06;;;;;;;39.00;18.92;;;;;;;;;;6202164;28;20052;-58
2022/08/29 02:18:07;;;;;;;39.40;19.83;;;;;;;;;;6224985;28;20463;-58
2022/08/29 02:21:09;;;;;;;38.03;18.87;;;;;;;;;;6221114;28;20045;-58
2022/08/29 02:24:10;;;;;;;47.67;19.23;;;;;;;;;;6224312;28;20132;-58
2022/08/29 02:27:11;;;;;;;42.23;19.17;;;;;;;;;;6224079;28;20046;-57
2022/08/29 02:30:13;;;;;;;45.65;20.33;;;;;;;;;;6222913;28;20969;-57
2022/08/29 02:33:15;;;;;;;46.65;20.35;;;;;;;;;;6221095;28;20056;-57
2022/08/29 02:36:17;;;;;;;39.05;20.23;;;;;;;;;;6220267;28;20129;-58
2022/08/29 02:39:18;;;;;;;42.58;19.58;;;;;;;;;;6220219;28;20069;-57
2022/08/29 02:42:18;;;;;;;43.87;19.13;;;;;;;;;;6220853;28;20065;-59
2022/08/29 02:45:21;;;;;;;39.27;17.97;;;;;;;;;;6220717;28;20307;-59
2022/08/29 02:48:22;;;;;;;37.50;18.27;;;;;;;;;;6222698;28;20088;-59
2022/08/29 02:51:26;;;;;;;38.00;18.47;;;;;;;;;;6219946;28;20046;-59
2022/08/29 02:54:27;;;;;;;36.92;17.58;;;;;;;;;;6220614;28;20041;-58
2022/08/29 02:57:27;;;;;;;37.33;17.30;;;;;;;;;;6221610;28;20587;-59
2022/08/29 03:00:28;;;;;;;35.30;17.67;;;;;;;;;;6222794;28;20045;-58
2022/08/29 03:03:28;;;;;;;38.63;17.80;;;;;;;;;;6225472;28;20527;-57
2022/08/29 03:06:29;;;;;;;47.07;19.70;;;;;;;;;;6220924;28;20047;-58
2022/08/29 03:09:30;;;;;;;39.67;17.13;;;;;;;;;;6221784;28;20033;-58
2022/08/29 03:12:31;;;;;;;41.27;19.13;;;;;;;;;;6222580;28;20061;-57
2022/08/29 03:15:32;;;;;;;35.83;17.07;;;;;;;;;;6220900;28;20053;-59
2022/08/29 03:18:32;;;;;;;32.80;17.20;;;;;;;;;;6221916;28;20049;-60
2022/08/29 03:21:33;;;;;;;37.70;16.83;;;;;;;;;;6221760;28;20052;-59
2022/08/29 03:24:35;;;;;;;39.70;17.90;;;;;;;;;;6220087;28;20037;-60
2022/08/29 03:27:35;;;;;;;40.80;18.10;;;;;;;;;;6220690;28;20136;-57
2022/08/29 03:30:36;;;;;;;38.90;18.30;;;;;;;;;;6220751;28;20119;-55
2022/08/29 03:33:37;;;;;;;35.73;17.40;;;;;;;;;;6219930;28;20038;-58
2022/08/29 03:36:38;;;;;;;35.05;17.48;;;;;;;;;;6220504;28;20136;-59
2022/08/29 03:39:39;;;;;;;51.37;19.03;;;;;;;;;;6221806;28;20046;-57
2022/08/29 03:42:41;;;;;;;51.67;18.20;;;;;;;;;;6224439;28;20144;-57
2022/08/29 03:45:42;;;;;;;41.33;17.58;;;;;;;;;;6224467;28;20484;-59
2022/08/29 03:48:43;;;;;;;39.80;18.80;;;;;;;;;;6228303;28;20092;-58
2022/08/29 03:51:43;;;;;;;40.37;18.47;;;;;;;;;;6219779;28;20048;-58
2022/08/29 03:54:44;;;;;;;40.13;18.03;;;;;;;;;;6221071;28;20124;-58
2022/08/29 03:57:44;;;;;;;37.70;17.97;;;;;;;;;;6224525;28;20064;-58
2022/08/29 04:00:45;;;;;;;40.07;18.80;;;;;;;;;;6222124;28;20144;-58
2022/08/29 04:03:46;;;;;;;36.70;18.80;;;;;;;;;;6222248;28;20841;-59
2022/08/29 04:06:46;;;;;;;32.97;16.57;;;;;;;;;;6221115;28;20054;-59
2022/08/29 04:09:47;;;;;;;39.13;17.17;;;;;;;;;;6222016;28;20081;-55
2022/08/29 04:12:48;;;;;;;33.50;17.37;;;;;;;;;;6217265;28;20049;-57
2022/08/29 04:15:49;;;;;;;37.53;18.38;;;;;;;;;;6222314;28;20041;-59
2022/08/29 04:18:49;;;;;;;43.30;18.67;;;;;;;;;;6226040;28;20072;-59
2022/08/29 04:21:50;;;;;;;36.83;18.67;;;;;;;;;;6220608;28;20046;-57
2022/08/29 04:24:51;;;;;;;41.53;18.33;;;;;;;;;;6220362;28;20469;-59
2022/08/29 04:27:53;;;;;;;39.97;19.90;;;;;;;;;;6220792;28;20042;-59
2022/08/29 04:30:54;;;;;;;48.38;20.77;;;;;;;;;;6223037;28;20092;-57
2022/08/29 04:33:55;;;;;;;44.50;20.13;;;;;;;;;;6219541;28;20104;-59
2022/08/29 04:36:56;;;;;;;40.78;19.58;;;;;;;;;;6219988;28;20091;-58
2022/08/29 04:39:57;;;;;;;41.20;19.17;;;;;;;;;;6219793;28;20049;-57
2022/08/29 04:42:58;;;;;;;44.23;19.50;;;;;;;;;;6215006;28;20050;-58
2022/08/29 04:45:59;;;;;;;46.00;20.13;;;;;;;;;;6232517;28;20052;-60
2022/08/29 04:49:00;;;;;;;41.58;19.05;;;;;;;;;;6241235;28;20053;-58
2022/08/29 04:52:01;;;;;;;41.40;20.33;;;;;;;;;;6235569;28;20409;-59
2022/08/29 04:55:03;;;;;;;42.80;20.30;;;;;;;;;;6243218;28;20053;-56
2022/08/29 04:58:05;;;;;;;37.10;19.15;;;;;;;;;;6235554;28;20054;-57
2022/08/29 05:01:06;;;;;;;38.10;19.02;;;;;;;;;;6244583;28;20068;-58
2022/08/29 05:04:06;;;;;;;37.40;19.30;;;;;;;;;;6236024;28;20046;-59
2022/08/29 05:07:07;;;;;;;42.93;19.87;;;;;;;;;;6242231;28;20046;-59
2022/08/29 05:10:12;;;;;;;40.07;18.67;;;;;;;;;;6233266;28;20037;-58
2022/08/29 05:13:13;;;;;;;33.58;17.80;;;;;;;;;;6221670;28;20144;-58
2022/08/29 05:16:16;;;;;;;38.23;18.00;;;;;;;;;;6221180;28;20050;-59
2022/08/29 05:19:16;;;;;;;36.30;17.45;;;;;;;;;;6218081;28;20092;-58
2022/08/29 05:22:21;;;;;;;35.30;17.03;;;;;;;;;;6219223;28;20053;-58
2022/08/29 05:25:22;;;;;;;43.65;21.10;;;;;;;;;;6218171;28;21423;-58
2022/08/29 05:28:23;;;;;;;46.60;19.70;;;;;;;;;;6220156;28;20124;-55
2022/08/29 05:31:24;;;;;;;44.63;18.98;;;;;;;;;;6221511;28;20136;-59
2022/08/29 05:34:25;;;;;;;46.03;19.93;;;;;;;;;;6222310;28;20787;-58
2022/08/29 05:37:26;;;;;;;44.85;18.50;;;;;;;;;;6220600;28;21061;-57
2022/08/29 05:40:27;;;;;;;35.27;16.73;;;;;;;;;;6219367;28;20137;-59
2022/08/29 05:43:28;;;;;;;36.63;16.08;;;;;;;;;;6216534;28;20531;-56
2022/08/29 05:46:28;;;;;;;38.90;17.73;;;;;;;;;;6236996;28;20067;-56
2022/08/29 05:49:29;;;;;;;30.97;14.87;;;;;;;;;;6242874;28;20085;-58
2022/08/29 05:52:30;;;;;;;36.20;16.00;;;;;;;;;;6239538;28;20050;-53
2022/08/29 05:55:30;;;;;;;33.30;16.20;;;;;;;;;;6240060;28;20439;-54
2022/08/29 05:58:31;;;;;;;29.40;13.60;;;;;;;;;;6236151;28;20058;-58
2022/08/29 06:01:33;;;;;;;30.70;14.30;;;;;;;;;;6239850;28;20516;-57
2022/08/29 06:04:34;;;;;;;26.17;13.20;;;;;;;;;;6222991;28;20084;-57
2022/08/29 06:07:34;;;;;;;33.27;13.43;;;;;;;;;;6230088;28;20481;-57
2022/08/29 06:10:40;;;;;;;27.73;13.85;;;;;;;;;;6221319;28;20038;-59
2022/08/29 06:13:41;;;;;;;28.23;14.00;;;;;;;;;;6217321;28;20065;-58
2022/08/29 06:16:42;;;;;;;38.27;16.63;;;;;;;;;;6218135;28;20042;-58
2022/08/29 06:19:42;;;;;;;35.77;17.00;;;;;;;;;;6219572;28;20528;-58
2022/08/29 06:22:43;;;;;;;38.00;16.80;;;;;;;;;;6217694;28;20063;-58
2022/08/29 06:25:43;;;;;;;48.20;21.60;;;;;;;;;;6217635;28;20072;-52
2022/08/29 06:28:45;;;;;;;38.43;18.97;;;;;;;;;;6220678;28;20576;-58
2022/08/29 06:31:45;;;;;;;40.03;18.20;;;;;;;;;;6220842;28;20050;-59
2022/08/29 06:34:46;;;;;;;40.97;19.30;;;;;;;;;;6220127;28;20765;-59
2022/08/29 06:37:47;;;;;;;40.80;20.10;;;;;;;;;;6219577;28;20041;-58
2022/08/29 06:40:48;;;;;;;38.03;17.70;;;;;;;;;;6222573;28;20037;-59
2022/08/29 06:43:48;;;;;;;35.53;16.70;;;;;;;;;;6218340;28;20187;-57
2022/08/29 06:46:49;;;;;;;33.00;15.13;;;;;;;;;;6220377;28;20306;-54
2022/08/29 06:49:50;;;;;;;33.63;17.13;;;;;;;;;;6220014;28;20704;-55
2022/08/29 06:52:51;;;;;;;35.77;16.23;;;;;;;;;;6219150;28;20991;-57
2022/08/29 06:55:51;;;;;;;34.47;15.63;;;;;;;;;;6224904;28;20052;-58
2022/08/29 06:58:52;;;;;;;32.00;16.47;;;;;;;;;;6220840;28;20177;-55
2022/08/29 07:01:54;;;;;;;33.67;16.83;;;;;;;;;;6218687;28;20052;-57
2022/08/29 07:04:54;;;;;;;42.47;18.23;;;;;;;;;;6217888;28;20052;-57
2022/08/29 07:07:55;;;;;;;37.70;18.70;;;;;;;;;;6218669;28;20129;-59
2022/08/29 07:10:55;;;;;;;34.77;18.83;;;;;;;;;;6224572;28;20057;-55
2022/08/29 07:13:59;;;;;;;39.83;18.67;;;;;;;;;;6232911;28;20042;-58
2022/08/29 07:16:59;;;;;;;34.70;18.15;;;;;;;;;;6240458;28;20140;-55
2022/08/29 07:20:01;;;;;;;40.67;19.30;;;;;;;;;;6227645;28;20074;-57
2022/08/29 07:23:01;;;;;;;36.47;19.60;;;;;;;;;;6218740;28;20493;-59
2022/08/29 07:26:14;;;;;;;40.43;19.33;;;;;;;;;;6219400;28;20810;-56
2022/08/29 07:29:18;;;;;;;38.88;18.70;;;;;;;;;;6217592;28;20504;-58
2022/08/29 07:32:19;;;;;;;35.40;18.45;;;;;;;;;;6216747;28;20141;-58
2022/08/29 07:35:20;;;;;;;38.30;18.37;;;;;;;;;;6219502;28;20041;-58
2022/08/29 07:38:20;;;;;;;37.27;17.80;;;;;;;;;;6216837;28;20504;-58
2022/08/29 07:41:22;;;;;;;41.03;19.13;;;;;;;;;;6218183;28;20044;-56
2022/08/29 07:44:24;;;;;;;43.15;20.85;;;;;;;;;;6227551;28;20077;-58
2022/08/29 07:47:25;;;;;;;49.20;22.13;;;;;;;;;;6237029;28;20065;-55
2022/08/29 07:50:26;;;;;;;44.67;21.55;;;;;;;;;;6239547;28;20188;-58
2022/08/29 07:53:27;;;;;;;41.17;19.30;;;;;;;;;;6226896;28;20050;-59
2022/08/29 07:56:37;;;;;;;40.40;20.37;;;;;;;;;;6218776;28;20099;-56
2022/08/29 07:59:38;;;;;;;43.03;19.85;;;;;;;;;;6231241;28;20552;-55
2022/08/29 08:02:39;;;;;;;36.57;19.37;;;;;;;;;;6238872;28;20040;-58
2022/08/29 08:05:39;;;;;;;36.20;18.83;;;;;;;;;;6216087;28;20030;-58
2022/08/29 08:08:40;;;;;;;33.63;16.97;;;;;;;;;;6218295;28;20505;-58
2022/08/29 08:11:41;;;;;;;30.00;16.57;;;;;;;;;;6216678;28;20068;-59
2022/08/29 08:14:42;;;;;;;33.28;17.73;;;;;;;;;;6215384;28;20057;-59
2022/08/29 08:17:43;;;;;;;31.17;17.53;;;;;;;;;;6225802;28;20049;-59
2022/08/29 08:20:47;;;;;;;30.17;16.65;;;;;;;;;;6216175;28;20567;-58
2022/08/29 08:23:47;;;;;;;34.97;17.85;;;;;;;;;;6215179;28;20164;-58
2022/08/29 08:26:48;;;;;;;32.00;17.87;;;;;;;;;;6224817;28;20042;-58
2022/08/29 08:29:49;;;;;;;31.10;16.50;;;;;;;;;;6238831;28;20045;-58
2022/08/29 08:32:49;;;;;;;34.20;17.53;;;;;;;;;;6237610;28;20107;-58
2022/08/29 08:35:50;;;;;;;28.93;16.50;;;;;;;;;;6217068;28;20058;-57
2022/08/29 08:38:53;;;;;;;33.25;16.98;;;;;;;;;;6220218;28;20062;-59
2022/08/29 08:41:57;;;;;;;33.25;17.40;;;;;;;;;;6218775;28;20138;-58
2022/08/29 08:45:17;;;;;;;32.08;16.08;;;;;;;;;;6232849;28;20083;-59
2022/08/29 08:48:21;;;;;;;35.20;16.73;;;;;;;;;;6241160;28;20053;-58
2022/08/29 08:51:31;;;;;;;31.35;15.65;;;;;;;;;;6227793;28;20071;-58
2022/08/29 08:54:42;;;;;;;30.52;14.85;;;;;;;;;;6222265;28;20052;-58
2022/08/29 08:57:49;;;;;;;33.00;15.73;;;;;;;;;;6220133;28;21625;-57
2022/08/29 09:01:22;;;;;;;32.88;16.65;;;;;;;;;;6222051;28;20523;-59
2022/08/29 09:04:36;;;;;;;32.58;15.80;;;;;;;;;;6213530;28;20127;-59
2022/08/29 09:07:54;;;;;;;33.67;16.17;;;;;;;;;;6224170;28;20081;-58
2022/08/29 09:11:02;;;;;;;34.88;16.73;;;;;;;;;;6227413;28;20073;-57
2022/08/29 09:14:25;;;;;;;37.33;16.63;;;;;;;;;;6226176;28;20085;-58
2022/08/29 09:17:42;;;;;;;35.80;17.13;;;;;;;;;;6222997;28;20070;-56
2022/08/29 09:20:43;;;;;;;36.35;16.95;;;;;;;;;;6227542;28;20451;-57
2022/08/29 09:23:48;;;;;;;30.90;16.67;;;;;;;;;;6238818;28;20147;-58
2022/08/29 09:26:48;;;;;;;36.83;17.08;;;;;;;;;;6242804;28;20583;-55
2022/08/29 09:30:17;;;;;;;30.93;14.73;;;;;;;;;;6240833;28;20050;-58
2022/08/29 09:33:17;;;;;;;31.27;15.38;;;;;;;;;;6225549;28;20523;-55
2022/08/29 09:36:44;;;;;;;27.90;14.30;;;;;;;;;;6221343;28;20053;-52
2022/08/29 09:40:00;;;;;;;31.70;14.18;;;;;;;;;;6220988;28;20061;-56
2022/08/29 09:43:02;;;;;;;28.63;14.32;;;;;;;;;;6221321;28;20048;-57
2022/08/29 09:46:02;;;;;;;26.75;14.65;;;;;;;;;;6218971;28;20141;-58
2022/08/29 09:49:03;;;;;;;28.17;14.77;;;;;;;;;;6220506;28;20061;-58
2022/08/29 09:52:16;;;;;;;30.97;13.87;;;;;;;;;;6237764;28;20045;-57
2022/08/29 09:55:22;;;;;;;29.35;13.73;;;;;;;;;;6241354;28;20073;-57
2022/08/29 09:58:23;;;;;;;26.00;13.52;;;;;;;;;;6240556;28;20095;-56
2022/08/29 10:01:24;;;;;;;25.02;13.25;;;;;;;;;;6241799;28;20073;-59
2022/08/29 10:04:39;;;;;;;28.63;14.13;;;;;;;;;;6241669;28;20091;-58
2022/08/29 10:07:50;;;;;;;27.17;14.77;;;;;;;;;;6241304;28;20152;-56
2022/08/29 10:10:58;;;;;;;28.30;14.00;;;;;;;;;;6240493;28;20040;-58
2022/08/29 10:14:08;;;;;;;25.27;13.45;;;;;;;;;;6241845;28;20040;-57
2022/08/29 10:21:01;;;;;;;26.05;13.75;;;;;;;;;;6240421;28;20054;-59
2022/08/29 10:24:35;;;;;;;25.63;13.27;;;;;;;;;;6218391;28;20505;-58
2022/08/29 10:27:59;;;;;;;29.77;13.32;;;;;;;;;;6219640;28;20167;-58
2022/08/29 10:31:12;;;;;;;25.02;12.32;;;;;;;;;;6220024;28;20068;-57
2022/08/29 10:34:26;;;;;;;23.92;12.45;;;;;;;;;;6224383;28;21005;-59
2022/08/29 10:37:39;;;;;;;25.55;11.98;;;;;;;;;;6238240;28;20045;-59
2022/08/29 10:41:08;;;;;;;24.33;12.63;;;;;;;;;;6240789;28;20120;-58
2022/08/29 10:44:16;;;;;;;25.92;13.45;;;;;;;;;;6240844;28;20415;-59
2022/08/29 10:47:26;;;;;;;30.27;13.38;;;;;;;;;;6241384;28;20065;-58
2022/08/29 10:50:52;;;;;;;30.20;14.80;;;;;;;;;;6239248;28;20550;-59
2022/08/29 10:54:08;;;;;;;26.70;13.35;;;;;;;;;;6235587;28;20179;-57
2022/08/29 10:57:11;;;;;;;21.52;10.82;;;;;;;;;;6239242;28;20033;-59
2022/08/29 11:00:19;;;;;;;23.48;11.50;;;;;;;;;;6240674;28;20046;-59
2022/08/29 11:03:41;;;;;;;25.95;12.05;;;;;;;;;;6235179;28;20060;-58
2022/08/29 11:07:10;;;;;;;27.23;11.40;;;;;;;;;;6228222;28;20160;-58
2022/08/29 11:10:19;;;;;;;24.27;11.23;;;;;;;;;;6230588;28;20050;-59
2022/08/29 11:13:37;;;;;;;22.40;11.20;;;;;;;;;;6219779;28;20053;-58
2022/08/29 11:16:44;;;;;;;22.55;10.80;;;;;;;;;;6227616;28;20045;-54
2022/08/29 11:19:53;;;;;;;19.27;9.95;;;;;;;;;;6228607;28;20049;-59
2022/08/29 11:22:59;;;;;;;18.60;10.07;;;;;;;;;;6230453;28;20049;-56
2022/08/29 11:26:07;;;;;;;23.92;11.20;;;;;;;;;;6223372;28;20092;-59
2022/08/29 11:29:21;;;;;;;23.52;11.57;;;;;;;;;;6219807;28;20428;-58
2022/08/29 11:32:25;;;;;;;25.00;11.27;;;;;;;;;;6219768;28;20045;-59
2022/08/29 11:35:53;;;;;;;23.15;11.52;;;;;;;;;;6216645;28;20057;-57
2022/08/29 11:39:21;;;;;;;21.30;10.52;;;;;;;;;;6221801;28;20520;-56
2022/08/29 11:42:29;;;;;;;23.15;11.77;;;;;;;;;;6224550;28;20152;-55
2022/08/29 11:45:37;;;;;;;25.80;11.20;;;;;;;;;;6226259;28;20057;-57
2022/08/29 11:48:40;;;;;;;18.55;10.35;;;;;;;;;;6230701;28;20067;-58
2022/08/29 11:51:42;;;;;;;16.98;9.65;;;;;;;;;;6225172;28;20091;-57
2022/08/29 11:54:44;;;;;;;21.88;9.65;;;;;;;;;;6217994;28;20144;-59
2022/08/29 11:57:53;;;;;;;19.50;10.15;;;;;;;;;;6216417;28;20052;-58
2022/08/29 12:00:57;;;;;;;21.90;10.55;;;;;;;;;;6219985;28;20049;-58
2022/08/29 12:03:58;;;;;;;21.65;10.93;;;;;;;;;;6213464;28;20185;-59
2022/08/29 12:07:01;;;;;;;20.27;11.20;;;;;;;;;;6219445;28;20050;-58
2022/08/29 12:10:06;;;;;;;28.38;11.18;;;;;;;;;;6218396;28;20176;-58
2022/08/29 12:13:07;;;;;;;21.27;11.13;;;;;;;;;;6218288;28;20050;-58
2022/08/29 12:16:08;;;;;;;20.50;11.70;;;;;;;;;;6224730;28;20052;-55
2022/08/29 12:19:09;;;;;;;30.27;12.57;;;;;;;;;;6232941;28;20049;-55
2022/08/29 12:22:10;;;;;;;22.55;11.85;;;;;;;;;;6229922;28;20050;-59
2022/08/29 12:25:28;;;;;;;25.10;12.03;;;;;;;;;;6230679;28;20092;-59
2022/08/29 12:28:43;;;;;;;21.65;10.63;;;;;;;;;;6235112;28;20051;-57
2022/08/29 12:32:18;;;;;;;24.70;9.75;;;;;;;;;;6224865;28;20064;-59
2022/08/29 12:35:42;;;;;;;19.02;9.57;;;;;;;;;;6222593;28;20063;-59
2022/08/29 12:39:01;;;;;;;25.00;10.27;;;;;;;;;;6224319;28;20046;-59
2022/08/29 12:42:16;;;;;;;16.48;8.68;;;;;;;;;;6226511;28;20099;-53
2022/08/29 12:45:23;;;;;;;21.52;9.43;;;;;;;;;;6223608;28;20077;-58
2022/08/29 12:48:39;;;;;;;19.70;8.77;;;;;;;;;;6230148;28;20065;-57
2022/08/29 12:51:42;;;;;;;22.92;9.45;;;;;;;;;;6229775;28;20139;-58
2022/08/29 12:54:42;;;;;;;21.50;9.27;;;;;;;;;;6227956;28;20041;-59
2022/08/29 12:57:45;;;;;;;28.43;9.67;;;;;;;;;;6230953;28;20129;-57
2022/08/29 13:00:51;;;;;;;19.55;9.85;;;;;;;;;;6230492;28;20046;-59
2022/08/29 13:04:08;;;;;;;21.73;9.23;;;;;;;;;;6228365;28;21574;-59
2022/08/29 13:07:15;;;;;;;19.75;8.77;;;;;;;;;;6231226;28;20128;-59
2022/08/29 13:10:17;;;;;;;22.80;8.63;;;;;;;;;;6230544;28;20729;-56
2022/08/29 13:13:21;;;;;;;22.35;9.85;;;;;;;;;;6228190;28;21308;-59
2022/08/29 13:16:28;;;;;;;21.17;9.18;;;;;;;;;;6231045;28;20065;-59
2022/08/29 13:19:28;;;;;;;19.20;8.52;;;;;;;;;;6231316;28;20045;-59
2022/08/29 13:22:30;;;;;;;18.13;9.10;;;;;;;;;;6230859;28;20045;-58
2022/08/29 13:25:32;;;;;;;22.48;9.63;;;;;;;;;;6228094;28;20056;-58
2022/08/29 13:28:45;;;;;;;19.73;8.77;;;;;;;;;;6229726;28;20049;-59
2022/08/29 13:32:10;;;;;;;21.83;8.15;;;;;;;;;;6221100;28;20037;-59
2022/08/29 13:35:14;;;;;;;17.98;8.70;;;;;;;;;;6217727;28;20115;-58
2022/08/29 13:38:19;;;;;;;18.80;8.25;;;;;;;;;;6221851;28;20144;-58
2022/08/29 13:41:27;;;;;;;21.50;8.52;;;;;;;;;;6221141;28;20048;-58
2022/08/29 13:44:36;;;;;;;17.27;7.63;;;;;;;;;;6223592;28;20045;-58
2022/08/29 13:48:00;;;;;;;21.75;7.88;;;;;;;;;;6226593;28;20460;-59
2022/08/29 13:51:02;;;;;;;21.77;8.13;;;;;;;;;;6228845;28;20104;-59
2022/08/29 13:54:03;;;;;;;20.88;7.93;;;;;;;;;;6226348;28;20044;-57
2022/08/29 13:57:04;;;;;;;15.80;7.67;;;;;;;;;;6227441;28;20054;-51
2022/08/29 14:00:06;;;;;;;19.57;8.23;;;;;;;;;;6221540;28;20140;-51
2022/08/29 14:03:08;;;;;;;20.15;7.70;;;;;;;;;;6220812;28;20104;-59
2022/08/29 14:06:10;;;;;;;20.38;7.93;;;;;;;;;;6219362;28;20048;-59
2022/08/29 14:09:18;;;;;;;22.48;7.97;;;;;;;;;;6220709;28;20063;-58
2022/08/29 14:12:19;;;;;;;19.90;7.38;;;;;;;;;;6224895;28;20068;-59
2022/08/29 14:15:19;;;;;;;16.08;7.05;;;;;;;;;;6220860;28;20053;-59
2022/08/29 14:18:20;;;;;;;20.13;7.43;;;;;;;;;;6220724;28;20430;-58
2022/08/29 14:21:21;;;;;;;20.90;7.37;;;;;;;;;;6222774;28;20112;-59
2022/08/29 14:24:21;;;;;;;20.13;7.40;;;;;;;;;;6219902;28;20045;-59
2022/08/29 14:27:22;;;;;;;21.05;8.65;;;;;;;;;;6223300;28;20468;-59
2022/08/29 14:30:23;;;;;;;18.30;7.60;;;;;;;;;;6224506;28;20050;-58
2022/08/29 14:33:24;;;;;;;;;;;;;;;;;;6222697;28;21912;-59
2022/08/29 14:36:25;;;;;;;21.03;6.80;;;;;;;;;;6224715;28;20027;-58
2022/08/29 14:39:26;;;;;;;16.58;6.43;;;;;;;;;;6222860;28;20053;-59
2022/08/29 14:42:26;;;;;;;15.97;6.37;;;;;;;;;;6222672;28;20046;-56
2022/08/29 14:45:29;;;;;;;16.73;6.10;;;;;;;;;;6222524;28;20850;-58
2022/08/29 14:48:29;;;;;;;16.23;6.65;;;;;;;;;;6221148;28;20088;-59
2022/08/29 14:51:30;;;;;;;17.30;6.47;;;;;;;;;;6221317;28;21069;-59
2022/08/29 14:54:30;;;;;;;15.97;5.97;;;;;;;;;;6200584;28;20443;-57
2022/08/29 14:57:31;;;;;;;15.70;6.63;;;;;;;;;;6220208;28;20056;-59
2022/08/29 15:00:32;;;;;;;14.73;5.87;;;;;;;;;;6219132;28;20306;-59
2022/08/29 15:03:33;;;;;;;16.25;6.03;;;;;;;;;;6220184;28;20704;-59
2022/08/29 15:06:34;;;;;;;16.57;5.43;;;;;;;;;;6223847;28;20045;-59
2022/08/29 15:09:35;;;;;;;15.87;5.60;;;;;;;;;;6221649;28;20068;-58
2022/08/29 15:12:35;;;;;;;14.30;5.67;;;;;;;;;;6221805;28;20077;-59
2022/08/29 15:15:36;;;;;;;19.42;5.80;;;;;;;;;;6222218;28;20812;-58
2022/08/29 15:18:37;;;;;;;20.80;5.87;;;;;;;;;;6221237;28;20037;-59
2022/08/29 15:21:37;;;;;;;14.85;5.47;;;;;;;;;;6220817;28;20041;-58
2022/08/29 15:24:39;;;;;;;13.47;5.43;;;;;;;;;;6220526;28;20084;-58
2022/08/29 15:27:40;;;;;;;14.85;5.68;;;;;;;;;;6220002;28;20054;-57
2022/08/29 15:30:41;;;;;;;18.58;6.45;;;;;;;;;;6219669;28;20124;-56
2022/08/29 15:33:42;;;;;;;16.42;5.43;;;;;;;;;;6221324;28;20144;-56
2022/08/29 15:36:43;;;;;;;16.77;5.38;;;;;;;;;;6222695;28;20107;-58
2022/08/29 15:39:44;;;;;;;15.37;6.03;;;;;;;;;;6221311;28;20049;-57
2022/08/29 15:42:44;;;;;;;16.80;5.97;;;;;;;;;;6220611;28;20825;-56
2022/08/29 15:45:45;;;;;;;14.27;5.27;;;;;;;;;;6219624;28;20057;-58
2022/08/29 15:48:46;;;;;;;18.70;5.67;;;;;;;;;;6220158;28;20049;-59
2022/08/29 15:51:46;;;;;;;17.60;5.60;;;;;;;;;;6221920;28;20701;-58
2022/08/29 15:54:47;;;;;;;11.73;5.00;;;;;;;;;;6218704;28;20045;-59
2022/08/29 15:57:48;;;;;;;16.30;5.03;;;;;;;;;;6218775;28;20493;-58
2022/08/29 16:00:49;;;;;;;15.48;5.10;;;;;;;;;;6221389;28;20057;-59
2022/08/29 16:03:49;;;;;;;11.47;4.63;;;;;;;;;;6226739;28;20741;-59
2022/08/29 16:06:51;;;;;;;15.83;5.67;;;;;;;;;;6228921;28;20132;-58
2022/08/29 16:09:52;;;;;;;12.23;5.60;;;;;;;;;;6227975;28;20052;-58
2022/08/29 16:12:53;;;;;;;12.37;4.70;;;;;;;;;;6220917;28;20053;-59
2022/08/29 16:15:54;;;;;;;17.02;5.15;;;;;;;;;;6219469;28;20420;-55
2022/08/29 16:18:54;;;;;;;14.43;5.20;;;;;;;;;;6218968;28;20071;-59
2022/08/29 16:21:58;;;;;;;15.13;5.28;;;;;;;;;;6221825;28;20045;-58
2022/08/29 16:24:59;;;;;;;15.35;5.55;;;;;;;;;;6211853;28;20042;-58
2022/08/29 16:28:00;;;;;;;14.53;5.73;;;;;;;;;;6218411;28;20077;-65
2022/08/29 16:31:01;;;;;;;21.67;5.80;;;;;;;;;;6227703;28;20034;-58
2022/08/29 16:34:01;;;;;;;12.20;5.25;;;;;;;;;;6228520;28;20353;-57
2022/08/29 16:37:02;;;;;;;15.00;5.40;;;;;;;;;;6225342;28;20477;-57
2022/08/29 16:40:05;;;;;;;15.30;5.20;;;;;;;;;;6222010;28;20088;-57
2022/08/29 16:43:06;;;;;;;14.00;5.50;;;;;;;;;;6224439;28;20104;-59
2022/08/29 16:46:09;;;;;;;12.38;5.20;;;;;;;;;;6223699;28;20404;-55
2022/08/29 16:49:10;;;;;;;13.52;5.13;;;;;;;;;;6221637;28;20079;-56
2022/08/29 16:52:11;;;;;;;25.47;5.70;;;;;;;;;;6225577;28;21550;-55
2022/08/29 16:55:11;;;;;;;13.80;5.30;;;;;;;;;;6216492;28;20038;-55
2022/08/29 17:01:39;;;;;;;13.90;5.65;;;;;;;;;;6226514;28;20086;-56
2022/08/29 17:04:40;;;;;;;14.40;6.10;;;;;;;;;;6220351;28;20060;-57
2022/08/29 17:16:45;;;;;;;17.47;6.33;;;;;;;;;;6229491;28;20057;-55
2022/08/29 17:19:46;;;;;;;17.80;6.35;;;;;;;;;;6228988;28;20045;-57
2022/08/29 17:22:46;;;;;;;20.33;6.13;;;;;;;;;;6225777;28;20049;-58
2022/08/29 17:25:47;;;;;;;15.93;6.13;;;;;;;;;;6229642;28;20059;-59
2022/08/29 17:28:47;;;;;;;13.43;5.67;;;;;;;;;;6227543;28;20096;-58
2022/08/29 17:31:48;;;;;;;19.73;5.97;;;;;;;;;;6227169;28;20044;-59
2022/08/29 17:34:49;;;;;;;18.77;6.10;;;;;;;;;;6229034;28;20691;-60
2022/08/29 17:37:49;;;;;;;13.43;6.40;;;;;;;;;;6227738;28;20548;-60
2022/08/29 17:40:57;;;;;;;18.60;6.60;;;;;;;;;;6226112;28;20168;-60
2022/08/29 17:43:58;;;;;;;20.20;5.95;;;;;;;;;;6206170;28;20064;-57
2022/08/29 17:46:59;;;;;;;25.10;7.50;;;;;;;;;;6230176;28;20077;-58
2022/08/29 17:49:59;;;;;;;18.03;7.63;;;;;;;;;;6227333;28;20045;-57
2022/08/29 17:53:00;;;;;;;16.43;6.20;;;;;;;;;;6226051;28;20072;-58
2022/08/29 17:56:19;;;;;;;20.00;6.57;;;;;;;;;;6229267;28;20103;-58
2022/08/29 17:59:21;;;;;;;24.17;6.82;;;;;;;;;;6225895;28;20504;-59
2022/08/29 18:02:22;;;;;;;;;;;;;;;;;;6226438;28;20091;-58
2022/08/29 18:05:23;;;;;;;18.80;6.53;;;;;;;;;;6228314;28;19925;-58
2022/08/29 18:08:24;;;;;;;19.15;6.80;;;;;;;;;;6229306;28;20041;-55
2022/08/29 18:11:26;;;;;;;17.53;7.07;;;;;;;;;;6227078;28;20064;-58
2022/08/29 18:14:27;;;;;;;;;;;;;;;;;;6226081;28;20133;-56